Accueil
METAR-TAF:

METAR-TAF

Aéroports :

Aéroport Châlons-Vatry

Châlons-en-Champagne, France

latitude: 48-46-34N, longitude: 004-11-04E, altitude: 179 m

Observation

Le bulletin a été fait il y a 18 minutes, à 16:00 UTC
Vent 16 kt de ouest
Température 17°C
Humidité 42%
Pression 1017 hPa
Visibilité 10 km ou plus
pas de nuages en-dessous de 1500 mètres et pas de cumulonimbus.

METAR: LFOK 211600Z AUTO 27016KT CAVOK 17/04 Q1017 BECMG 24003KT

Heure: 18:18 (16:18 UTC)

Prévision

Le bulletin a été fait il y a 5 heures et 18 minutes, à 11:00 UTC
Prévision valable du 21 à 12 UTC au 22 à 12 UTC
Vent 13 kt de ouest/sud-ouest
Visibilité 10 km ou plus
Nuages épars à une hauteur de 4000 ft
Evoluant progressivement
du 21 à 16 UTC au 21 à 18 UTC
Vent 3 kt de ouest/sud-ouest

TAF: LFOK 211100Z 2112/2212 25013KT 9999 SCT040 BECMG 2116/2118 24003KT

Observations et prévisions météorologiques de plus de 4000 aéroports (messages METAR et TAF).

Les stations disponibles sont représentées par des disques jaunes et rouges sur la carte.

Passer la souris dessus pour voir le nom de la station.

Cliquer dessus pour voir les observations et prévisions météorologiques.

Pour changer de carte: cliquez sur les boutons verts avec une croix noire pour zoomer, sur le bouton vert avec un tiret pour effectuer un zoom arrière, ou sur les flèches vertes pour les cartes adjacentes.


METAR-TAF: